Time;durP1;ratioP1;P1;durP2;ratioP2;P2;SDS_P1;SDS_P2;PMS_P1;PMS_P2;Temp;Humidity;BMP_temperature;BMP_pressure;BME280_temperature;BME280_humidity;BME280_pressure;Samples;Min_cycle;Max_cycle;Signal;HPM_P1;HPM_P2
2022/12/24 00:02:14;;;;;;;22.35;14.00;;;3.70;99.90;;;;;;5065662;28;20485;-73
2022/12/24 00:04:40;;;;;;;23.20;13.48;;;3.60;99.90;;;;;;5068084;28;20082;-73
2022/12/24 00:07:05;;;;;;;21.10;13.65;;;3.60;99.90;;;;;;5066285;28;20966;-73
2022/12/24 00:09:31;;;;;;;23.88;13.48;;;3.80;99.90;;;;;;5073684;28;20032;-72
2022/12/24 00:11:57;;;;;;;22.00;13.10;;;3.80;99.90;;;;;;5072306;28;20458;-73
2022/12/24 00:14:22;;;;;;;22.60;12.75;;;3.80;99.90;;;;;;5073281;28;20032;-73
2022/12/24 00:16:48;;;;;;;26.48;11.98;;;3.50;99.90;;;;;;5064800;28;20127;-72
2022/12/24 00:19:13;;;;;;;27.05;15.32;;;3.40;99.90;;;;;;5064467;28;20366;-72
2022/12/24 00:21:39;;;;;;;27.50;16.80;;;3.60;99.90;;;;;;5066006;28;20036;-73
2022/12/24 00:24:05;;;;;;;28.88;17.55;;;3.80;99.90;;;;;;5069280;28;20085;-73
2022/12/24 00:26:34;;;;;;;25.13;14.43;;;3.60;99.90;;;;;;5062338;28;20049;-72
2022/12/24 00:29:00;;;;;;;24.27;13.63;;;3.50;99.90;;;;;;5070928;28;20035;-72
2022/12/24 00:31:25;;;;;;;25.13;14.20;;;3.30;99.90;;;;;;5065156;28;20029;-73
2022/12/24 00:33:51;;;;;;;26.95;14.70;;;3.20;99.90;;;;;;5072651;28;20418;-72
2022/12/24 00:36:18;;;;;;;25.08;16.38;;;3.20;99.90;;;;;;5071234;28;20036;-73
2022/12/24 00:38:44;;;;;;;24.85;14.05;;;3.10;99.90;;;;;;5067935;28;20107;-72
2022/12/24 00:41:23;;;;;;;21.58;14.18;;;3.00;99.90;;;;;;5070483;28;20024;-73
2022/12/24 00:43:51;;;;;;;22.48;14.43;;;2.90;99.90;;;;;;5068454;28;20047;-73
2022/12/24 00:46:17;;;;;;;24.85;14.23;;;2.90;99.90;;;;;;5068534;28;20025;-73
2022/12/24 00:48:43;;;;;;;28.05;14.95;;;2.90;99.90;;;;;;5072506;28;20039;-73
2022/12/24 00:51:08;;;;;;;28.80;15.70;;;3.10;99.90;;;;;;5075039;28;20035;-73
2022/12/24 00:53:34;;;;;;;24.33;14.88;;;3.10;99.90;;;;;;5073310;28;20115;-73
2022/12/24 00:55:59;;;;;;;24.83;15.50;;;3.20;99.90;;;;;;5070015;28;20438;-73
2022/12/24 00:58:25;;;;;;;24.50;14.27;;;3.20;99.90;;;;;;5072720;28;20024;-73
2022/12/24 01:00:51;;;;;;;21.23;13.68;;;3.20;99.90;;;;;;5074394;28;20032;-73
2022/12/24 01:03:16;;;;;;;22.02;13.93;;;3.20;99.90;;;;;;5068038;28;20028;-73
2022/12/24 01:05:42;;;;;;;23.35;13.48;;;3.30;99.90;;;;;;5078600;28;20055;-72
2022/12/24 01:08:07;;;;;;;22.23;13.05;;;3.30;99.90;;;;;;5084107;28;20059;-73
2022/12/24 01:10:33;;;;;;;21.40;13.10;;;3.30;99.90;;;;;;5071491;28;20024;-73
2022/12/24 01:13:02;;;;;;;23.67;14.55;;;3.40;99.90;;;;;;5074466;28;20025;-73
2022/12/24 01:15:28;;;;;;;24.90;13.07;;;3.40;99.90;;;;;;5075837;28;20043;-73
2022/12/24 01:17:54;;;;;;;23.17;13.25;;;3.40;99.90;;;;;;5078567;28;20081;-73
2022/12/24 01:20:20;;;;;;;19.92;11.55;;;3.20;99.90;;;;;;5073558;28;20029;-73
2022/12/24 01:22:47;;;;;;;21.48;12.18;;;3.00;99.90;;;;;;5068878;28;20028;-73
2022/12/24 01:25:13;;;;;;;21.17;11.93;;;3.00;99.90;;;;;;5071292;28;20140;-73
2022/12/24 01:27:39;;;;;;;23.90;12.95;;;3.00;99.90;;;;;;5074355;28;20100;-73
2022/12/24 01:30:07;;;;;;;19.70;11.60;;;3.00;99.90;;;;;;5076991;28;20036;-73
2022/12/24 01:32:33;;;;;;;22.05;12.40;;;2.70;99.90;;;;;;5077775;28;20074;-73
2022/12/24 01:34:59;;;;;;;22.20;12.52;;;2.70;99.90;;;;;;5071994;28;20311;-73
2022/12/24 01:37:25;;;;;;;18.80;11.48;;;2.90;99.90;;;;;;5074913;28;20428;-73
2022/12/24 01:43:22;;;;;;;20.45;11.43;;;2.80;99.90;;;;;;5077930;28;20028;-73
2022/12/24 01:45:47;;;;;;;24.13;11.95;;;3.10;99.90;;;;;;5075670;28;20038;-73
2022/12/24 01:48:15;;;;;;;17.05;10.52;;;3.20;99.90;;;;;;5070488;28;20044;-73
2022/12/24 01:50:41;;;;;;;17.80;10.60;;;3.30;99.90;;;;;;5080122;28;20024;-72
2022/12/24 01:53:09;;;;;;;18.52;10.50;;;3.30;99.90;;;;;;5081552;28;20423;-73
2022/12/24 01:55:35;;;;;;;15.68;9.80;;;3.30;99.90;;;;;;5079500;28;20045;-73
2022/12/24 01:58:02;;;;;;;14.88;10.25;;;3.20;99.90;;;;;;5078892;28;20032;-73
2022/12/24 02:00:28;;;;;;;15.10;10.10;;;3.10;99.90;;;;;;5070414;28;20542;-73
2022/12/24 02:02:54;;;;;;;20.73;11.15;;;2.90;99.90;;;;;;5086876;28;20036;-73
2022/12/24 02:05:47;;;;;;;17.88;10.68;;;2.80;99.90;;;;;;5077301;28;20023;-73
2022/12/24 02:08:13;;;;;;;15.68;10.23;;;2.90;99.90;;;;;;5081557;28;20115;-73
2022/12/24 02:10:39;;;;;;;15.13;9.35;;;3.00;99.90;;;;;;5081361;28;20032;-73
2022/12/24 02:13:05;;;;;;;14.43;8.82;;;2.80;99.90;;;;;;5079078;28;20140;-73
2022/12/24 02:15:56;;;;;;;18.52;9.70;;;3.00;99.90;;;;;;5082133;28;20555;-73
2022/12/24 02:18:32;;;;;;;15.90;8.65;;;3.10;99.90;;;;;;5072035;28;20048;-73
2022/12/24 02:21:36;;;;;;;15.85;9.10;;;3.10;99.90;;;;;;5072688;28;20028;-72
2022/12/24 02:24:08;;;;;;;15.55;9.55;;;3.20;99.90;;;;;;5078015;28;20033;-73
2022/12/24 02:27:03;;;;;;;15.68;8.70;;;3.20;99.90;;;;;;5084652;28;20047;-73
2022/12/24 02:29:57;;;;;;;15.27;10.10;;;3.10;99.90;;;;;;5078698;28;20123;-73
2022/12/24 02:32:28;;;;;;;16.23;9.40;;;3.00;99.90;;;;;;5077722;28;20032;-73
2022/12/24 02:35:07;;;;;;;15.05;9.45;;;3.10;99.90;;;;;;5074396;28;20425;-73
2022/12/24 02:37:49;;;;;;;14.23;8.55;;;3.40;99.90;;;;;;5080611;28;20046;-73
2022/12/24 02:40:24;;;;;;;15.55;9.77;;;3.10;99.90;;;;;;5079693;28;20111;-73
2022/12/24 02:42:57;;;;;;;15.88;9.05;;;3.30;99.90;;;;;;5080754;28;20034;-73
2022/12/24 02:45:30;;;;;;;13.75;8.40;;;3.20;99.90;;;;;;5083742;28;20028;-73
2022/12/24 02:47:56;;;;;;;18.83;10.73;;;3.10;99.90;;;;;;5074741;28;20478;-73
2022/12/24 02:50:22;;;;;;;19.63;10.15;;;3.30;99.90;;;;;;5074037;28;20055;-73
2022/12/24 02:52:48;;;;;;;15.07;9.00;;;3.20;99.90;;;;;;5074604;28;20021;-73
2022/12/24 02:55:19;;;;;;;13.75;8.80;;;3.10;99.90;;;;;;5080924;28;20061;-73
2022/12/24 02:58:03;;;;;;;13.95;8.80;;;3.20;99.90;;;;;;5079407;28;20024;-73
2022/12/24 03:00:57;;;;;;;13.38;8.38;;;3.20;99.90;;;;;;5072278;28;20099;-73
2022/12/24 03:03:35;;;;;;;16.38;9.73;;;3.10;99.90;;;;;;5076902;28;20028;-72
2022/12/24 03:06:10;;;;;;;15.10;10.07;;;3.10;99.90;;;;;;5072409;28;20148;-72
2022/12/24 03:08:58;;;;;;;16.20;8.80;;;3.00;99.90;;;;;;5077323;28;20029;-72
2022/12/24 03:11:24;;;;;;;12.93;8.38;;;2.90;99.90;;;;;;5071328;28;24172;-72
2022/12/24 03:13:51;;;;;;;17.17;9.50;;;2.90;99.90;;;;;;5079753;28;20033;-72
2022/12/24 03:16:23;;;;;;;15.82;9.00;;;2.80;99.90;;;;;;5083038;28;20028;-72
2022/12/24 03:18:51;;;;;;;14.88;9.15;;;3.10;99.90;;;;;;5074938;28;20031;-72
2022/12/24 03:21:33;;;;;;;12.95;8.45;;;3.50;99.90;;;;;;5077938;28;20076;-72
2022/12/24 03:23:59;;;;;;;13.82;8.43;;;3.60;99.90;;;;;;5083895;28;20028;-72
2022/12/24 03:26:27;;;;;;;12.10;8.10;;;3.60;99.90;;;;;;5081111;28;20052;-72
2022/12/24 03:28:53;;;;;;;14.18;8.15;;;3.60;99.90;;;;;;5075284;28;20028;-72
2022/12/24 03:31:19;;;;;;;13.40;7.88;;;3.40;99.90;;;;;;5078452;28;20433;-72
2022/12/24 03:33:45;;;;;;;13.13;8.48;;;3.30;99.90;;;;;;5080244;28;20051;-72
2022/12/24 03:36:12;;;;;;;13.57;8.02;;;3.40;99.90;;;;;;5073560;28;20044;-72
2022/12/24 03:38:38;;;;;;;15.48;8.50;;;3.30;99.90;;;;;;5070834;28;20162;-72
2022/12/24 03:41:04;;;;;;;13.82;8.02;;;3.00;99.90;;;;;;5078378;28;20390;-72
2022/12/24 03:43:30;;;;;;;14.65;9.23;;;3.00;99.90;;;;;;5075091;28;20482;-72
2022/12/24 03:45:56;;;;;;;13.35;8.13;;;2.90;99.90;;;;;;5078367;28;20024;-72
2022/12/24 03:48:22;;;;;;;11.48;7.50;;;2.80;99.90;;;;;;5081180;28;20024;-72
2022/12/24 03:50:47;;;;;;;12.05;8.10;;;2.60;99.90;;;;;;5077788;28;20036;-72
2022/12/24 03:53:13;;;;;;;11.52;8.20;;;2.50;99.90;;;;;;5074675;28;20031;-72
2022/12/24 03:55:39;;;;;;;11.07;6.55;;;2.70;99.90;;;;;;5077450;28;20032;-72
2022/12/24 03:58:05;;;;;;;11.43;6.85;;;2.70;99.90;;;;;;5080689;28;20032;-72
2022/12/24 04:00:30;;;;;;;13.73;7.43;;;2.70;99.90;;;;;;5077807;28;20553;-70
2022/12/24 04:02:56;;;;;;;12.25;6.28;;;2.70;99.90;;;;;;5071129;28;20042;-70
2022/12/24 04:05:22;;;;;;;13.50;6.88;;;2.60;99.90;;;;;;5063977;28;20024;-70
2022/12/24 04:07:47;;;;;;;13.98;7.72;;;2.70;99.90;;;;;;5076641;28;20409;-70
2022/12/24 04:10:14;;;;;;;12.80;8.18;;;2.80;99.90;;;;;;5067183;28;20457;-70
2022/12/24 04:12:40;;;;;;;10.90;7.13;;;2.90;99.90;;;;;;5068876;28;20391;-70
2022/12/24 04:15:08;;;;;;;11.23;6.47;;;2.80;99.90;;;;;;5070783;28;20078;-70
2022/12/24 04:17:34;;;;;;;12.40;6.93;;;2.70;99.90;;;;;;5072362;28;20107;-70
2022/12/24 04:20:00;;;;;;;11.75;6.65;;;2.60;99.90;;;;;;5065698;28;20115;-71
2022/12/24 04:22:25;;;;;;;12.40;7.18;;;2.50;99.90;;;;;;5072554;28;20032;-70
2022/12/24 04:24:51;;;;;;;11.90;6.95;;;2.60;99.90;;;;;;5070023;28;20486;-70
2022/12/24 04:27:17;;;;;;;12.52;8.20;;;2.50;99.90;;;;;;5068019;28;20124;-70
2022/12/24 04:29:43;;;;;;;14.00;7.57;;;2.70;99.90;;;;;;5072199;28;20070;-70
2022/12/24 04:32:09;;;;;;;10.32;6.13;;;2.80;99.90;;;;;;5067108;28;20471;-70
2022/12/24 04:34:35;;;;;;;11.40;6.70;;;2.80;99.90;;;;;;5070518;28;20033;-70
2022/12/24 04:37:01;;;;;;;10.60;6.80;;;2.80;99.90;;;;;;5076428;28;20128;-70
2022/12/24 04:39:26;;;;;;;10.43;6.40;;;2.80;99.90;;;;;;5070441;28;20628;-70
2022/12/24 04:41:52;;;;;;;11.60;6.55;;;2.50;99.90;;;;;;5066720;28;20024;-70
2022/12/24 04:44:18;;;;;;;11.27;6.97;;;2.40;99.90;;;;;;5070796;28;20039;-71
2022/12/24 04:46:43;;;;;;;14.20;7.53;;;2.50;99.90;;;;;;5072756;28;20497;-70
2022/12/24 04:49:10;;;;;;;12.18;7.20;;;2.40;99.90;;;;;;5062419;28;20036;-70
2022/12/24 04:51:36;;;;;;;11.55;6.32;;;2.50;99.90;;;;;;5071200;28;20139;-70
2022/12/24 04:54:01;;;;;;;10.52;6.85;;;2.60;99.90;;;;;;5065317;28;20487;-71
2022/12/24 04:56:30;;;;;;;12.98;6.93;;;2.70;99.90;;;;;;5076445;28;20036;-70
2022/12/24 04:58:56;;;;;;;11.32;6.88;;;2.90;99.90;;;;;;5062931;28;20035;-70
2022/12/24 05:01:24;;;;;;;11.35;7.07;;;3.00;99.90;;;;;;5064197;28;20739;-70
2022/12/24 05:03:50;;;;;;;10.38;6.10;;;3.10;99.90;;;;;;5062376;28;20024;-70
2022/12/24 05:06:19;;;;;;;13.15;6.70;;;3.10;99.90;;;;;;5070340;28;20745;-70
2022/12/24 05:08:45;;;;;;;11.23;6.72;;;3.20;99.90;;;;;;5071230;28;20063;-71
2022/12/24 05:11:14;;;;;;;13.90;7.25;;;3.00;99.90;;;;;;5062842;28;20583;-71
2022/12/24 05:13:44;;;;;;;10.65;6.80;;;3.00;99.90;;;;;;5063667;28;20036;-71
2022/12/24 05:16:11;;;;;;;13.02;7.95;;;3.10;99.90;;;;;;5068965;28;20754;-70
2022/12/24 05:18:37;;;;;;;11.20;6.18;;;2.80;99.90;;;;;;5071698;28;20046;-70
2022/12/24 05:21:06;;;;;;;10.57;5.90;;;2.90;99.90;;;;;;5070415;28;20458;-70
2022/12/24 05:26:34;;;;;;;9.73;6.07;;;3.10;99.90;;;;;;5062135;28;20059;-71
2022/12/24 05:29:01;;;;;;;10.73;6.50;;;3.00;99.90;;;;;;5076723;28;20348;-70
2022/12/24 05:31:28;;;;;;;12.23;7.38;;;2.90;99.90;;;;;;5066608;28;20533;-70
2022/12/24 05:33:54;;;;;;;12.73;8.27;;;3.20;99.90;;;;;;5072062;28;20036;-70
2022/12/24 05:36:21;;;;;;;11.88;6.65;;;3.10;99.90;;;;;;5063917;28;20157;-70
2022/12/24 05:38:47;;;;;;;11.32;6.75;;;3.10;99.90;;;;;;5071917;28;20513;-70
2022/12/24 05:41:13;;;;;;;12.15;6.80;;;2.90;99.90;;;;;;5068746;28;20099;-70
2022/12/24 05:43:38;;;;;;;13.30;7.90;;;2.80;99.90;;;;;;5071672;28;20063;-70
2022/12/24 05:46:07;;;;;;;13.70;6.72;;;2.60;99.90;;;;;;5067087;28;20062;-71
2022/12/24 05:48:34;;;;;;;11.68;8.05;;;2.40;99.90;;;;;;5064203;28;20115;-70
2022/12/24 05:51:04;;;;;;;8.98;6.25;;;2.40;99.90;;;;;;5066544;28;20047;-70
2022/12/24 05:53:31;;;;;;;11.23;7.13;;;2.50;99.90;;;;;;5067253;28;20045;-71
2022/12/24 05:56:06;;;;;;;11.45;7.45;;;2.80;99.90;;;;;;5071139;28;20041;-72
2022/12/24 05:58:31;;;;;;;9.85;6.45;;;2.70;99.90;;;;;;5066797;28;25924;-72
2022/12/24 06:00:57;;;;;;;13.80;7.15;;;2.60;99.90;;;;;;5061524;28;20462;-72
2022/12/24 06:03:24;;;;;;;11.88;7.90;;;2.50;99.90;;;;;;5063446;28;20027;-72
2022/12/24 06:05:57;;;;;;;9.45;6.20;;;2.40;99.90;;;;;;5067448;28;20031;-72
2022/12/24 06:08:23;;;;;;;11.65;6.40;;;2.40;99.90;;;;;;5072116;28;20085;-72
2022/12/24 06:10:54;;;;;;;10.68;6.80;;;2.30;99.90;;;;;;5072199;28;20028;-72
2022/12/24 06:13:20;;;;;;;9.85;6.15;;;2.40;99.90;;;;;;5067273;28;20028;-72
2022/12/24 06:15:45;;;;;;;10.80;6.88;;;2.30;99.90;;;;;;5065239;28;20067;-72
2022/12/24 06:18:11;;;;;;;10.57;7.07;;;2.20;99.90;;;;;;5062734;28;20078;-72
2022/12/24 06:20:37;;;;;;;10.38;6.47;;;2.20;99.90;;;;;;5069059;28;20028;-72
2022/12/24 06:23:02;;;;;;;12.40;7.35;;;2.10;99.90;;;;;;5059623;28;20451;-72
2022/12/24 06:25:28;;;;;;;12.77;7.53;;;2.20;99.90;;;;;;5062659;28;20576;-72
2022/12/24 06:27:54;;;;;;;12.52;7.50;;;2.10;99.90;;;;;;5064411;28;20478;-72
2022/12/24 06:30:19;;;;;;;11.68;6.65;;;2.10;99.90;;;;;;5070100;28;20024;-72
2022/12/24 06:32:45;;;;;;;11.32;6.82;;;2.00;99.90;;;;;;5065531;28;20135;-72
2022/12/24 06:35:11;;;;;;;11.32;6.97;;;2.00;99.90;;;;;;5070412;28;20139;-72
2022/12/24 06:37:36;;;;;;;8.55;5.53;;;2.00;99.90;;;;;;5065929;28;20043;-72
2022/12/24 06:40:02;;;;;;;9.80;6.30;;;2.10;99.90;;;;;;5064371;28;20087;-72
2022/12/24 06:42:28;;;;;;;10.27;5.85;;;2.30;99.90;;;;;;5069756;28;20462;-72
2022/12/24 06:44:54;;;;;;;10.02;6.60;;;2.40;99.90;;;;;;5072716;28;20024;-72
2022/12/24 06:47:19;;;;;;;9.27;5.82;;;2.50;99.90;;;;;;5073395;28;20056;-72
2022/12/24 06:49:45;;;;;;;10.27;5.90;;;2.50;99.90;;;;;;5067202;28;20032;-72
2022/12/24 06:52:10;;;;;;;10.13;6.25;;;2.60;99.90;;;;;;5075946;28;20897;-72
2022/12/24 06:54:36;;;;;;;11.77;6.20;;;2.70;99.90;;;;;;5062838;28;20032;-72
2022/12/24 06:57:02;;;;;;;11.88;6.63;;;2.80;99.90;;;;;;5066535;28;20044;-72
2022/12/24 06:59:27;;;;;;;9.63;5.88;;;3.00;99.90;;;;;;5070733;28;20077;-71
2022/12/24 07:01:53;;;;;;;11.43;6.18;;;3.10;99.90;;;;;;5070277;28;20115;-72
2022/12/24 07:04:18;;;;;;;10.60;6.15;;;3.10;99.90;;;;;;5065347;28;20653;-72
2022/12/24 07:06:44;;;;;;;12.02;6.78;;;3.00;99.90;;;;;;5075506;28;20028;-72
2022/12/24 07:09:13;;;;;;;9.48;6.07;;;2.60;99.90;;;;;;5071646;28;20037;-72
2022/12/24 07:11:38;;;;;;;14.15;6.15;;;2.40;99.90;;;;;;5064122;28;20039;-72
2022/12/24 07:14:04;;;;;;;11.25;6.47;;;2.40;99.90;;;;;;5068995;28;20024;-72
2022/12/24 07:16:29;;;;;;;10.80;6.30;;;2.40;99.90;;;;;;5071760;28;20045;-72
2022/12/24 07:18:55;;;;;;;13.48;6.90;;;2.40;99.90;;;;;;5067949;28;20033;-72
2022/12/24 07:21:21;;;;;;;9.90;6.15;;;2.60;99.90;;;;;;5077422;28;20100;-72
2022/12/24 07:23:46;;;;;;;10.32;6.65;;;2.60;99.90;;;;;;5070725;28;20058;-72
2022/12/24 07:26:12;;;;;;;10.10;6.07;;;2.50;99.90;;;;;;5066275;28;20052;-72
2022/12/24 07:28:38;;;;;;;17.17;7.00;;;2.50;99.90;;;;;;5067414;28;20040;-72
2022/12/24 07:31:03;;;;;;;11.80;6.30;;;2.40;99.90;;;;;;5074865;28;20073;-72
2022/12/24 07:33:29;;;;;;;10.45;6.88;;;2.40;99.90;;;;;;5083413;28;20124;-72
2022/12/24 07:36:04;;;;;;;10.63;6.28;;;2.40;99.90;;;;;;5077854;28;20123;-72
2022/12/24 07:38:31;;;;;;;9.77;5.85;;;2.30;99.90;;;;;;5080211;28;20127;-72
2022/12/24 07:40:57;;;;;;;9.18;6.32;;;2.30;99.90;;;;;;5078326;28;20412;-71
2022/12/24 07:43:24;;;;;;;12.98;6.25;;;2.40;99.90;;;;;;5088250;28;20038;-70
2022/12/24 07:45:49;;;;;;;10.20;5.43;;;2.50;99.90;;;;;;5082723;28;20035;-71
2022/12/24 07:48:15;;;;;;;11.73;6.55;;;2.50;99.90;;;;;;5085805;28;20032;-72
2022/12/24 07:50:41;;;;;;;11.07;5.75;;;2.70;99.90;;;;;;5083391;28;20036;-73
2022/12/24 07:53:07;;;;;;;12.60;6.30;;;2.90;99.90;;;;;;5070873;28;20039;-74
2022/12/24 07:55:34;;;;;;;8.57;6.00;;;2.80;99.90;;;;;;5077716;28;20044;-74
2022/12/24 07:57:59;;;;;;;11.80;7.05;;;2.70;99.90;;;;;;5073212;28;20232;-74
2022/12/24 08:00:25;;;;;;;14.15;7.40;;;2.70;99.90;;;;;;5070392;28;20028;-74
2022/12/24 08:02:51;;;;;;;12.40;7.63;;;2.60;99.90;;;;;;5082621;28;20024;-75
2022/12/24 08:05:16;;;;;;;9.75;6.15;;;2.50;99.90;;;;;;5080228;28;20496;-74
2022/12/24 08:07:42;;;;;;;11.73;7.18;;;2.50;99.90;;;;;;5078390;28;20060;-74
2022/12/24 08:10:08;;;;;;;11.63;8.10;;;2.50;99.90;;;;;;5073047;28;20386;-74
2022/12/24 08:12:35;;;;;;;13.00;6.85;;;2.50;99.90;;;;;;5065336;28;20028;-74
2022/12/24 08:15:00;;;;;;;12.27;6.45;;;2.40;99.90;;;;;;5065407;28;20031;-74
2022/12/24 08:17:26;;;;;;;9.75;6.38;;;2.50;99.90;;;;;;5069325;28;20028;-74
2022/12/24 08:19:51;;;;;;;12.27;8.40;;;2.50;99.90;;;;;;5064460;28;20059;-74
2022/12/24 08:22:17;;;;;;;11.35;6.60;;;2.70;99.90;;;;;;5066395;28;20528;-74
2022/12/24 08:24:43;;;;;;;12.77;7.18;;;2.70;99.90;;;;;;5061439;28;20470;-74
2022/12/24 08:27:08;;;;;;;12.13;6.95;;;2.80;99.90;;;;;;5066404;28;20024;-74
2022/12/24 08:29:34;;;;;;;10.82;6.10;;;2.70;99.90;;;;;;5066206;28;20373;-74
2022/12/24 08:32:00;;;;;;;12.02;7.03;;;2.80;99.90;;;;;;5064875;28;20051;-74
2022/12/24 08:34:26;;;;;;;12.65;7.85;;;3.00;99.90;;;;;;5063964;28;20069;-75
2022/12/24 08:36:51;;;;;;;14.27;7.60;;;2.60;99.90;;;;;;5071603;28;20036;-75
2022/12/24 08:39:17;;;;;;;14.75;7.68;;;2.60;99.90;;;;;;5063027;28;20032;-74
2022/12/24 08:41:42;;;;;;;12.48;7.30;;;2.70;99.90;;;;;;5069700;28;20024;-75
2022/12/24 08:44:08;;;;;;;13.30;6.50;;;2.60;99.90;;;;;;5060795;28;20039;-77
2022/12/24 08:46:34;;;;;;;9.90;6.30;;;2.70;99.90;;;;;;5066425;28;20020;-74
2022/12/24 08:48:59;;;;;;;14.18;7.35;;;3.30;99.90;;;;;;5064125;28;20040;-74
2022/12/24 08:51:25;;;;;;;16.38;10.52;;;3.10;99.90;;;;;;5066119;28;20348;-72
2022/12/24 08:53:50;;;;;;;18.42;10.52;;;2.70;99.90;;;;;;5060683;28;20060;-71
2022/12/24 08:56:16;;;;;;;13.48;9.18;;;2.70;99.90;;;;;;5066257;28;20099;-71
2022/12/24 08:58:42;;;;;;;11.77;7.22;;;2.70;99.90;;;;;;5079220;28;20040;-72
2022/12/24 09:01:13;;;;;;;14.50;7.93;;;2.70;99.90;;;;;;5071473;28;20028;-73
2022/12/24 09:03:39;;;;;;;12.95;7.22;;;2.80;99.90;;;;;;5073230;28;20054;-73
2022/12/24 09:06:06;;;;;;;12.45;6.57;;;2.90;99.90;;;;;;5073630;28;20540;-73
2022/12/24 09:08:32;;;;;;;18.08;11.95;;;3.10;99.90;;;;;;5072281;28;20416;-73
2022/12/24 09:11:09;;;;;;;13.48;7.88;;;3.10;99.90;;;;;;5074178;28;20089;-73
2022/12/24 09:13:36;;;;;;;14.13;8.55;;;3.10;99.90;;;;;;5066789;28;20043;-72
2022/12/24 09:16:01;;;;;;;15.85;8.30;;;3.00;99.90;;;;;;5074022;28;20093;-73
2022/12/24 09:18:27;;;;;;;17.75;12.57;;;2.90;99.90;;;;;;5071748;28;20039;-72
2022/12/24 09:21:01;;;;;;;23.38;15.07;;;3.00;99.90;;;;;;5073852;28;20114;-73
2022/12/24 09:23:27;;;;;;;14.05;9.13;;;3.10;99.90;;;;;;5071631;28;20059;-72
2022/12/24 09:25:53;;;;;;;12.27;8.18;;;3.10;99.90;;;;;;5069132;28;20497;-72
2022/12/24 09:28:19;;;;;;;11.30;7.32;;;3.10;99.90;;;;;;5077738;28;20060;-71
2022/12/24 09:30:44;;;;;;;11.98;7.45;;;3.10;99.90;;;;;;5074563;28;20028;-73
2022/12/24 09:33:10;;;;;;;13.95;8.50;;;3.20;99.90;;;;;;5075509;28;20036;-74
2022/12/24 09:35:39;;;;;;;11.80;7.65;;;3.30;99.90;;;;;;5070037;28;20061;-73
2022/12/24 09:38:04;;;;;;;12.30;7.38;;;3.30;99.90;;;;;;5061845;28;20367;-73
2022/12/24 09:40:38;;;;;;;10.82;7.38;;;3.30;99.90;;;;;;5083560;28;20043;-73
2022/12/24 09:43:18;;;;;;;11.52;7.50;;;3.30;99.90;;;;;;5064127;28;20037;-73
2022/12/24 09:45:55;;;;;;;11.73;7.18;;;3.40;99.90;;;;;;5069846;28;20997;-74
2022/12/24 09:48:27;;;;;;;11.75;6.43;;;3.50;99.90;;;;;;5070080;28;20031;-73
2022/12/24 09:51:15;;;;;;;14.63;9.27;;;3.50;99.90;;;;;;5072187;28;20028;-73
2022/12/24 09:53:58;;;;;;;15.20;9.93;;;3.30;99.90;;;;;;5065058;28;20033;-73
2022/12/24 09:56:32;;;;;;;19.40;10.23;;;3.10;99.90;;;;;;5079565;28;20024;-73
2022/12/24 09:59:00;;;;;;;16.43;10.27;;;3.10;99.90;;;;;;5076799;28;20032;-73
2022/12/24 10:01:29;;;;;;;15.88;8.98;;;3.10;99.90;;;;;;5067169;28;20325;-73
2022/12/24 10:04:01;;;;;;;13.27;8.70;;;3.10;99.90;;;;;;5080121;28;20375;-72
2022/12/24 10:06:50;;;;;;;15.63;8.88;;;3.20;99.90;;;;;;5075168;28;20032;-72
2022/12/24 10:09:15;;;;;;;13.70;8.55;;;3.10;99.90;;;;;;5067708;28;20441;-73
2022/12/24 10:11:51;;;;;;;10.30;6.80;;;3.10;99.90;;;;;;5078262;28;20032;-72
2022/12/24 10:14:28;;;;;;;10.48;6.75;;;3.30;99.90;;;;;;5086309;28;20031;-72
2022/12/24 10:17:25;;;;;;;11.30;7.28;;;3.50;99.90;;;;;;5085936;28;20040;-72
2022/12/24 10:20:20;;;;;;;11.40;7.35;;;3.50;99.90;;;;;;5071503;28;20037;-72
2022/12/24 10:22:46;;;;;;;10.05;6.68;;;3.50;99.90;;;;;;5072719;28;20558;-73
2022/12/24 10:25:24;;;;;;;12.05;7.13;;;3.50;99.90;;;;;;5069871;28;20052;-73
2022/12/24 10:27:53;;;;;;;24.20;13.27;;;3.40;99.90;;;;;;5073713;28;20025;-73
2022/12/24 10:30:21;;;;;;;16.30;9.82;;;3.50;99.90;;;;;;5071268;28;20032;-73
2022/12/24 10:32:49;;;;;;;14.65;7.57;;;3.50;99.90;;;;;;5074114;28;20047;-72
2022/12/24 10:35:25;;;;;;;12.02;7.18;;;3.40;99.90;;;;;;5078312;28;20035;-73
2022/12/24 10:37:51;;;;;;;10.25;6.53;;;3.50;99.90;;;;;;5068148;28;20060;-72
2022/12/24 10:40:39;;;;;;;9.93;7.43;;;3.50;99.90;;;;;;5075761;28;20493;-73
2022/12/24 10:43:16;;;;;;;13.95;10.40;;;3.50;99.90;;;;;;5074938;28;20036;-72
2022/12/24 10:45:46;;;;;;;11.82;8.18;;;3.50;99.90;;;;;;5070998;28;20505;-71
2022/12/24 10:48:20;;;;;;;14.43;8.95;;;3.50;99.90;;;;;;5073427;28;20116;-73
2022/12/24 10:51:13;;;;;;;12.57;10.23;;;3.50;99.90;;;;;;5069856;28;20040;-73
2022/12/24 10:53:50;;;;;;;12.38;9.38;;;3.70;99.90;;;;;;5071985;28;20024;-73
2022/12/24 10:56:18;;;;;;;15.15;7.60;;;3.70;99.90;;;;;;5064400;28;20119;-74
2022/12/24 10:58:45;;;;;;;11.63;7.65;;;3.80;99.90;;;;;;5063906;28;20102;-73
2022/12/24 11:01:12;;;;;;;10.70;6.55;;;4.00;99.90;;;;;;5061692;28;20099;-72
2022/12/24 11:03:38;;;;;;;13.45;8.05;;;4.10;99.90;;;;;;5063378;28;20071;-72
2022/12/24 11:06:19;;;;;;;11.00;6.93;;;4.20;99.90;;;;;;5064433;28;20039;-72
2022/12/24 11:08:45;;;;;;;11.35;7.32;;;4.30;99.90;;;;;;5062387;28;20551;-72
2022/12/24 11:11:16;;;;;;;10.82;7.03;;;4.40;99.90;;;;;;5066436;28;20028;-73
2022/12/24 11:13:56;;;;;;;17.17;10.02;;;4.90;99.90;;;;;;5064158;28;20037;-74
2022/12/24 11:16:34;;;;;;;15.32;9.93;;;4.90;99.90;;;;;;5062130;28;20054;-73
2022/12/24 11:19:02;;;;;;;13.75;9.20;;;4.90;99.90;;;;;;5066033;28;20027;-73
2022/12/24 11:21:39;;;;;;;24.70;15.60;;;5.00;99.90;;;;;;5075959;28;20360;-72
2022/12/24 11:24:11;;;;;;;28.77;17.58;;;5.10;99.90;;;;;;5070779;28;20108;-72
2022/12/24 11:26:37;;;;;;;24.58;13.68;;;5.30;99.90;;;;;;5064239;28;20044;-70
2022/12/24 11:29:13;;;;;;;28.17;16.88;;;5.40;99.90;;;;;;5082284;28;20069;-70
2022/12/24 11:31:39;;;;;;;32.47;16.95;;;5.50;99.90;;;;;;5072047;28;20024;-70
2022/12/24 11:34:25;;;;;;;23.30;13.57;;;5.60;99.90;;;;;;5071339;28;20033;-72
2022/12/24 11:36:53;;;;;;;13.50;8.35;;;5.50;99.90;;;;;;5061744;28;20141;-70
2022/12/24 11:39:21;;;;;;;9.52;6.55;;;5.50;99.90;;;;;;5062294;28;20042;-73
2022/12/24 11:41:51;;;;;;;12.93;6.28;;;5.60;99.90;;;;;;5066824;28;20566;-72
2022/12/24 11:44:25;;;;;;;12.95;7.05;;;5.70;99.90;;;;;;5069046;28;20024;-69
2022/12/24 11:46:55;;;;;;;12.68;7.47;;;6.10;99.90;;;;;;5078139;28;20089;-69
2022/12/24 11:49:30;;;;;;;11.68;7.13;;;5.90;99.90;;;;;;5070414;28;20540;-70
2022/12/24 11:52:08;;;;;;;11.18;7.40;;;5.90;99.90;;;;;;5061900;28;20025;-72
2022/12/24 11:55:00;;;;;;;12.45;7.15;;;5.80;99.90;;;;;;5066162;28;20395;-72
2022/12/24 11:57:30;;;;;;;9.35;6.22;;;5.80;99.90;;;;;;5068022;28;20036;-72
2022/12/24 11:59:56;;;;;;;8.43;6.07;;;6.10;99.90;;;;;;5063851;28;20035;-72
2022/12/24 12:02:35;;;;;;;9.05;5.35;;;6.10;99.90;;;;;;5062826;28;20544;-72
2022/12/24 12:05:24;;;;;;;9.45;4.88;;;6.20;99.90;;;;;;5062772;28;20032;-72
2022/12/24 12:07:53;;;;;;;12.35;6.00;;;6.30;99.90;;;;;;5070135;28;20035;-72
2022/12/24 12:10:26;;;;;;;12.23;6.43;;;6.40;99.90;;;;;;5064333;28;20028;-72
2022/12/24 12:13:12;;;;;;;11.57;7.75;;;6.50;99.90;;;;;;5063690;28;20029;-72
2022/12/24 12:15:50;;;;;;;12.68;8.55;;;6.40;99.90;;;;;;5061806;28;20136;-72
2022/12/24 12:18:34;;;;;;;13.15;9.13;;;6.50;99.90;;;;;;5062985;28;20029;-72
2022/12/24 12:21:23;;;;;;;15.30;9.73;;;6.60;99.90;;;;;;5060053;28;20028;-72
2022/12/24 12:24:03;;;;;;;16.73;10.88;;;6.50;99.90;;;;;;5060450;28;20043;-72
2022/12/24 12:26:31;;;;;;;14.57;10.57;;;6.60;99.90;;;;;;5061854;28;20351;-72
2022/12/24 12:29:28;;;;;;;15.25;9.68;;;6.60;99.90;;;;;;5061490;28;20032;-72
2022/12/24 12:32:05;;;;;;;14.32;10.63;;;6.70;99.90;;;;;;5063152;28;20036;-72
2022/12/24 12:34:34;;;;;;;16.10;9.73;;;6.80;99.90;;;;;;5068547;28;20073;-72
2022/12/24 12:37:24;;;;;;;22.27;9.68;;;6.60;99.90;;;;;;5060952;28;20040;-72
2022/12/24 12:39:50;;;;;;;15.25;10.27;;;6.70;99.90;;;;;;5062977;28;20032;-72
2022/12/24 12:42:34;;;;;;;14.73;9.50;;;6.80;99.90;;;;;;5069375;28;20039;-72
2022/12/24 12:45:43;;;;;;;15.05;9.70;;;6.90;99.90;;;;;;5061414;28;20021;-72
2022/12/24 12:48:46;;;;;;;12.02;8.40;;;6.90;99.90;;;;;;5013881;28;20121;-72
2022/12/24 12:51:27;;;;;;;13.65;8.68;;;7.00;99.90;;;;;;5060828;28;20040;-72
2022/12/24 12:54:24;;;;;;;13.30;8.98;;;7.00;99.90;;;;;;5062435;28;20032;-72
2022/12/24 12:56:53;;;;;;;15.50;10.30;;;7.10;99.90;;;;;;5061766;28;20037;-72
2022/12/24 12:59:25;;;;;;;14.70;9.80;;;7.00;99.90;;;;;;5062424;28;20028;-72
2022/12/24 13:02:02;;;;;;;14.20;9.18;;;6.90;99.90;;;;;;5060473;28;20024;-70
2022/12/24 13:04:46;;;;;;;15.88;9.45;;;6.80;99.90;;;;;;5059680;28;20560;-72
2022/12/24 13:07:41;;;;;;;14.02;9.18;;;6.70;99.90;;;;;;5062228;28;20020;-72